createdAt,value
2022-11-22T00:00:27.109Z,36.40
2022-11-22T00:03:02.907Z,36.47
2022-11-22T00:05:39.592Z,36.50
2022-11-22T00:08:14.473Z,35.00
2022-11-22T00:10:51.383Z,34.80
2022-11-22T00:13:27.960Z,36.27
2022-11-22T00:16:06.577Z,37.80
2022-11-22T00:18:40.731Z,35.90
2022-11-22T00:21:17.594Z,36.50
2022-11-22T00:23:51.867Z,36.90
2022-11-22T00:26:26.225Z,37.90
2022-11-22T00:29:01.072Z,36.77
2022-11-22T00:31:36.099Z,38.87
2022-11-22T00:34:10.934Z,37.77
2022-11-22T00:36:47.488Z,37.00
2022-11-22T00:39:23.223Z,37.33
2022-11-22T00:41:57.728Z,35.07
2022-11-22T00:44:32.976Z,33.60
2022-11-22T00:47:07.593Z,31.33
2022-11-22T00:49:41.947Z,33.63
2022-11-22T00:52:20.691Z,31.87
2022-11-22T00:54:55.267Z,28.37
2022-11-22T00:57:29.650Z,28.87
2022-11-22T01:00:03.671Z,29.60
2022-11-22T01:02:38.796Z,32.00
2022-11-22T01:05:13.375Z,30.43
2022-11-22T01:07:50.025Z,30.67
2022-11-22T01:10:24.377Z,32.63
2022-11-22T01:12:58.834Z,31.43
2022-11-22T01:15:33.336Z,31.87
2022-11-22T01:18:08.512Z,32.93
2022-11-22T01:20:45.164Z,31.93
2022-11-22T01:23:21.091Z,33.87
2022-11-22T01:25:56.235Z,33.57
2022-11-22T01:28:31.366Z,35.27
2022-11-22T01:31:06.706Z,34.73
2022-11-22T01:33:41.837Z,34.83
2022-11-22T01:36:16.978Z,33.80
2022-11-22T01:38:53.733Z,32.50
2022-11-22T01:41:28.377Z,33.33
2022-11-22T01:44:02.563Z,30.43
2022-11-22T01:46:40.195Z,30.30
2022-11-22T01:49:26.206Z,30.07
2022-11-22T01:52:07.292Z,29.70
2022-11-22T01:54:48.549Z,27.77
2022-11-22T01:57:26.887Z,27.90
2022-11-22T02:00:05.122Z,27.93
2022-11-22T02:02:41.318Z,27.07
2022-11-22T02:05:20.205Z,27.63
2022-11-22T02:07:59.747Z,25.33
2022-11-22T02:10:39.603Z,26.27
2022-11-22T02:13:14.950Z,25.83
2022-11-22T02:15:50.270Z,24.83
2022-11-22T02:18:24.355Z,24.45
2022-11-22T02:21:00.178Z,24.65
2022-11-22T02:23:43.715Z,26.55
2022-11-22T02:26:20.527Z,24.33
2022-11-22T02:28:57.077Z,22.20
2022-11-22T02:31:46.362Z,19.45
2022-11-22T02:34:21.338Z,16.08
2022-11-22T02:36:58.831Z,17.50
2022-11-22T02:39:37.779Z,17.35
2022-11-22T02:42:14.418Z,17.40
2022-11-22T02:44:51.822Z,17.27
2022-11-22T02:47:26.226Z,17.13
2022-11-22T02:50:01.059Z,17.87
2022-11-22T02:52:38.063Z,18.60
2022-11-22T02:55:13.187Z,18.77
2022-11-22T02:57:50.753Z,20.33
2022-11-22T03:00:25.836Z,19.63
2022-11-22T03:03:01.508Z,19.47
2022-11-22T03:05:37.144Z,18.23
2022-11-22T03:08:12.781Z,20.03
2022-11-22T03:10:47.526Z,19.87
2022-11-22T03:13:24.522Z,21.40
2022-11-22T03:16:00.279Z,21.50
2022-11-22T03:18:34.623Z,22.17
2022-11-22T03:21:10.012Z,19.67
2022-11-22T03:23:45.433Z,19.57
2022-11-22T03:26:20.057Z,19.27
2022-11-22T03:28:56.291Z,17.03
2022-11-22T03:31:31.581Z,17.00
2022-11-22T03:34:07.031Z,18.60
2022-11-22T03:36:41.503Z,17.37
2022-11-22T03:39:16.140Z,19.77
2022-11-22T03:41:50.697Z,19.43
2022-11-22T03:44:26.722Z,19.60
2022-11-22T03:47:01.355Z,19.77
2022-11-22T03:49:36.130Z,17.77
2022-11-22T03:52:10.616Z,17.17
2022-11-22T03:54:45.206Z,18.40
2022-11-22T03:57:19.610Z,15.77
2022-11-22T04:00:05.374Z,16.10
2022-11-22T04:02:46.174Z,15.07
2022-11-22T04:05:21.953Z,16.73
2022-11-22T04:07:58.813Z,18.00
2022-11-22T04:10:33.512Z,17.67
2022-11-22T04:13:07.658Z,17.33
2022-11-22T04:15:43.348Z,17.40
2022-11-22T04:18:19.285Z,17.73
2022-11-22T04:21:11.554Z,18.10
2022-11-22T04:24:07.327Z,17.53
2022-11-22T04:26:40.542Z,17.40
2022-11-22T04:29:14.878Z,16.73
2022-11-22T04:32:07.058Z,16.30
2022-11-22T04:34:42.997Z,17.10
2022-11-22T04:37:18.221Z,17.23
2022-11-22T04:39:53.402Z,17.87
2022-11-22T04:42:43.571Z,16.30
2022-11-22T04:45:22.275Z,18.30
2022-11-22T04:48:05.040Z,15.87
2022-11-22T04:50:55.396Z,17.50
2022-11-22T04:53:31.562Z,17.77
2022-11-22T04:56:06.738Z,17.67
2022-11-22T04:58:41.399Z,15.80
2022-11-22T05:01:16.068Z,16.90
2022-11-22T05:03:53.228Z,15.70
2022-11-22T05:06:27.477Z,15.50
2022-11-22T05:09:02.544Z,15.20
2022-11-22T05:11:39.624Z,17.00
2022-11-22T05:14:16.225Z,16.47
2022-11-22T05:16:50.517Z,15.67
2022-11-22T05:19:27.546Z,16.03
2022-11-22T05:22:02.571Z,16.27
2022-11-22T05:24:35.009Z,15.83
2022-11-22T05:27:09.059Z,15.77
2022-11-22T05:29:43.779Z,15.87
2022-11-22T05:32:18.390Z,16.63
2022-11-22T05:34:55.530Z,15.53
2022-11-22T05:37:33.383Z,15.87
2022-11-22T05:40:08.324Z,14.70
2022-11-22T05:42:42.545Z,15.37
2022-11-22T05:45:18.799Z,16.10
2022-11-22T05:47:52.701Z,16.43
2022-11-22T05:50:29.778Z,16.30
2022-11-22T05:53:10.362Z,16.07
2022-11-22T05:55:45.092Z,17.17
2022-11-22T05:58:20.554Z,17.97
2022-11-22T06:00:54.965Z,17.57
2022-11-22T06:03:30.025Z,17.73
2022-11-22T06:06:06.845Z,18.37
2022-11-22T06:08:44.008Z,17.30
2022-11-22T06:11:22.327Z,17.40
2022-11-22T06:13:58.501Z,18.80
2022-11-22T06:16:33.955Z,18.20
2022-11-22T06:19:08.896Z,18.43
2022-11-22T06:21:45.474Z,17.53
2022-11-22T06:24:20.066Z,18.67
2022-11-22T06:26:54.780Z,18.60
2022-11-22T06:29:29.342Z,19.17
2022-11-22T06:32:04.354Z,18.33
2022-11-22T06:34:41.889Z,17.80
2022-11-22T06:37:33.186Z,17.73
2022-11-22T06:40:09.197Z,17.93
2022-11-22T06:42:44.526Z,19.37
2022-11-22T06:45:18.793Z,18.43
2022-11-22T06:47:54.039Z,17.93
2022-11-22T06:50:31.181Z,18.03
2022-11-22T06:53:17.126Z,18.27
2022-11-22T06:56:06.792Z,18.07
2022-11-22T06:58:42.300Z,17.77
2022-11-22T07:01:18.911Z,18.07
2022-11-22T07:03:59.869Z,16.63
2022-11-22T07:06:39.028Z,17.40
2022-11-22T07:09:17.491Z,17.93
2022-11-22T07:11:51.731Z,17.53
2022-11-22T07:14:27.268Z,16.90
2022-11-22T07:17:02.494Z,16.93
2022-11-22T07:19:37.152Z,17.03
2022-11-22T07:22:13.390Z,17.73
2022-11-22T07:24:52.855Z,17.70
2022-11-22T07:27:27.305Z,18.10
2022-11-22T07:30:02.322Z,18.03
2022-11-22T07:32:40.740Z,17.93
2022-11-22T07:35:17.559Z,17.87
2022-11-22T07:37:53.384Z,18.53
2022-11-22T07:40:31.216Z,17.67
2022-11-22T07:43:12.270Z,18.00
2022-11-22T07:45:47.902Z,19.07
2022-11-22T07:48:22.424Z,18.13
2022-11-22T07:51:00.296Z,18.73
2022-11-22T07:53:35.384Z,17.50
2022-11-22T07:56:13.970Z,17.63
2022-11-22T07:58:49.621Z,17.50
2022-11-22T08:01:27.848Z,18.33
2022-11-22T08:04:08.071Z,18.33
2022-11-22T08:06:43.446Z,18.37
2022-11-22T08:09:19.013Z,19.27
2022-11-22T08:11:56.350Z,18.23
2022-11-22T08:14:31.007Z,18.10
2022-11-22T08:17:05.144Z,19.77
2022-11-22T08:19:39.854Z,18.23
2022-11-22T08:22:13.974Z,18.97
2022-11-22T08:24:48.623Z,17.93
2022-11-22T08:27:27.694Z,18.13
2022-11-22T08:30:02.470Z,18.00
2022-11-22T08:32:36.976Z,17.00
2022-11-22T08:35:12.119Z,18.40
2022-11-22T08:37:46.808Z,17.27
2022-11-22T08:40:23.810Z,17.43
2022-11-22T08:43:02.453Z,16.70
2022-11-22T08:45:39.601Z,16.70
2022-11-22T08:48:17.700Z,15.70
2022-11-22T08:51:00.760Z,15.80
2022-11-22T08:53:36.039Z,15.90
2022-11-22T08:56:11.981Z,15.57
2022-11-22T08:58:48.499Z,15.80
2022-11-22T09:01:28.485Z,15.50
2022-11-22T09:04:04.970Z,15.30
2022-11-22T09:09:37.769Z,15.70
2022-11-22T09:12:14.188Z,15.87
2022-11-22T09:14:50.654Z,16.57
2022-11-22T09:17:24.604Z,15.33
2022-11-22T09:19:58.790Z,16.23
2022-11-22T09:22:33.241Z,15.53
2022-11-22T09:25:08.593Z,16.03
2022-11-22T09:27:43.230Z,16.47
2022-11-22T09:30:23.254Z,15.10
2022-11-22T09:33:00.086Z,15.47
2022-11-22T09:35:34.536Z,14.93
2022-11-22T09:38:10.194Z,15.23
2022-11-22T09:40:51.356Z,15.67
2022-11-22T09:43:38.149Z,15.87
2022-11-22T09:46:30.385Z,15.30
2022-11-22T09:49:33.591Z,15.93
2022-11-22T09:52:14.831Z,15.90
2022-11-22T09:54:53.394Z,15.70
2022-11-22T09:57:33.171Z,15.67
2022-11-22T10:00:09.714Z,16.07
2022-11-22T10:03:00.407Z,16.57
2022-11-22T10:05:40.054Z,16.70
2022-11-22T10:08:29.231Z,15.13
2022-11-22T10:11:05.118Z,15.77
2022-11-22T10:13:43.012Z,17.20
2022-11-22T10:16:23.335Z,16.07
2022-11-22T10:19:06.474Z,17.27
2022-11-22T10:21:41.411Z,17.87
2022-11-22T10:24:19.747Z,18.53
2022-11-22T10:26:53.951Z,17.83
2022-11-22T10:29:37.156Z,17.53
2022-11-22T10:32:20.917Z,17.40
2022-11-22T10:35:12.177Z,18.20
2022-11-22T10:37:53.813Z,17.30
2022-11-22T10:40:32.854Z,17.10
2022-11-22T10:43:35.484Z,18.60
2022-11-22T10:46:18.730Z,19.37
2022-11-22T10:49:03.231Z,18.70
2022-11-22T10:51:47.592Z,18.67
2022-11-22T10:54:27.861Z,18.77
2022-11-22T10:57:10.278Z,18.63
2022-11-22T10:59:59.445Z,18.57
2022-11-22T11:03:08.078Z,18.13
2022-11-22T11:06:20.937Z,18.10
2022-11-22T11:09:36.095Z,18.83
2022-11-22T11:11:47.155Z,18.03
2022-11-22T11:14:31.128Z,19.30
2022-11-22T11:17:07.347Z,19.13
2022-11-22T11:19:49.311Z,18.43
2022-11-22T11:22:50.301Z,19.47
2022-11-22T11:25:35.845Z,18.83
2022-11-22T11:28:12.656Z,19.80
2022-11-22T11:31:07.971Z,18.70
2022-11-22T11:33:53.144Z,18.53
2022-11-22T11:36:28.850Z,17.93
2022-11-22T11:39:04.629Z,18.33
2022-11-22T11:41:55.243Z,18.80
2022-11-22T11:44:38.027Z,18.90
2022-11-22T11:47:25.214Z,19.20
2022-11-22T11:49:59.297Z,19.10
2022-11-22T11:52:36.150Z,18.30
2022-11-22T11:55:23.228Z,19.67
2022-11-22T11:58:01.585Z,20.17
2022-11-22T12:00:43.990Z,20.30
2022-11-22T12:03:21.187Z,20.60
2022-11-22T12:06:18.832Z,18.83
2022-11-22T12:08:53.729Z,20.57
2022-11-22T12:11:36.869Z,19.60
2022-11-22T12:14:20.820Z,20.03
2022-11-22T12:16:59.677Z,19.17
2022-11-22T12:19:41.382Z,18.87
2022-11-22T12:22:48.311Z,19.30
2022-11-22T12:25:33.037Z,19.43
2022-11-22T12:28:24.491Z,20.77
2022-11-22T12:31:09.361Z,20.73
2022-11-22T12:33:58.456Z,21.20
2022-11-22T12:36:38.683Z,21.33
2022-11-22T12:39:19.776Z,20.93
2022-11-22T12:41:58.740Z,21.20
2022-11-22T12:44:37.804Z,22.13
2022-11-22T12:47:18.718Z,21.43
2022-11-22T12:49:55.989Z,21.33
2022-11-22T12:52:37.416Z,21.37
2022-11-22T12:55:20.329Z,21.13
2022-11-22T12:57:59.660Z,22.27
2022-11-22T13:00:38.887Z,20.57
2022-11-22T13:03:36.530Z,20.27
2022-11-22T13:06:22.919Z,21.83
2022-11-22T13:09:04.983Z,21.47
2022-11-22T13:11:50.543Z,19.53
2022-11-22T13:14:28.654Z,19.07
2022-11-22T13:17:03.536Z,18.73
2022-11-22T13:19:47.641Z,20.77
2022-11-22T13:22:36.460Z,18.20
2022-11-22T13:25:44.641Z,19.63
2022-11-22T13:28:35.760Z,18.10
2022-11-22T13:31:27.407Z,19.67
2022-11-22T13:34:27.451Z,20.93
2022-11-22T13:37:14.742Z,19.70
2022-11-22T13:39:51.734Z,21.87
2022-11-22T13:42:29.332Z,23.77
2022-11-22T13:45:27.575Z,22.77
2022-11-22T13:48:02.110Z,22.40
2022-11-22T13:51:06.324Z,23.40
2022-11-22T13:53:48.109Z,22.40
2022-11-22T13:56:54.704Z,23.07
2022-11-22T13:59:38.140Z,23.20
2022-11-22T14:02:49.496Z,24.40
2022-11-22T14:05:36.586Z,23.03
2022-11-22T14:08:39.478Z,24.67
2022-11-22T14:11:39.299Z,24.77
2022-11-22T14:17:58.932Z,27.13
2022-11-22T14:20:52.103Z,26.87
2022-11-22T14:23:44.531Z,26.63
2022-11-22T14:26:34.407Z,26.77
2022-11-22T14:29:50.682Z,25.83
2022-11-22T14:32:32.597Z,24.30
2022-11-22T14:35:31.939Z,25.43
2022-11-22T14:38:28.867Z,25.63
2022-11-22T14:41:48.707Z,25.07
2022-11-22T14:44:29.009Z,24.07
2022-11-22T14:47:09.176Z,24.20
2022-11-22T14:49:50.619Z,24.63
2022-11-22T14:52:31.271Z,24.57
2022-11-22T14:55:08.030Z,25.70
2022-11-22T14:57:44.057Z,25.47
2022-11-22T15:00:29.018Z,24.03
2022-11-22T15:03:45.583Z,23.70
2022-11-22T15:09:20.511Z,23.77
2022-11-22T15:09:56.680Z,23.97
2022-11-22T15:12:49.320Z,23.60
2022-11-22T15:57:57.015Z,22.57
2022-11-22T16:00:34.401Z,22.50
2022-11-22T16:03:32.250Z,22.83
2022-11-22T16:06:12.298Z,21.70
2022-11-22T16:08:53.167Z,21.63
2022-11-22T16:11:31.644Z,22.10
2022-11-22T16:14:06.974Z,21.87
2022-11-22T16:16:42.060Z,23.10
2022-11-22T16:19:30.783Z,23.70
2022-11-22T16:22:11.148Z,22.50
2022-11-22T16:24:46.413Z,22.67
2022-11-22T16:27:21.922Z,23.30
2022-11-22T16:29:57.634Z,23.17
2022-11-22T16:32:33.059Z,24.60
2022-11-22T16:35:30.385Z,24.87
2022-11-22T16:38:08.550Z,26.33
2022-11-22T16:40:50.186Z,26.33
2022-11-22T16:43:26.951Z,27.77
2022-11-22T16:46:02.219Z,28.67
2022-11-22T16:48:43.161Z,28.17
2022-11-22T16:51:24.539Z,25.47
2022-11-22T16:54:02.250Z,24.70
2022-11-22T16:56:38.393Z,24.90
2022-11-22T16:59:17.719Z,25.67
2022-11-22T17:01:52.245Z,27.20
2022-11-22T17:04:35.403Z,26.53
2022-11-22T17:07:17.122Z,24.63
2022-11-22T17:09:55.851Z,25.00
2022-11-22T17:12:33.867Z,24.90
2022-11-22T17:15:08.969Z,26.80
2022-11-22T17:17:47.194Z,26.87
2022-11-22T17:20:22.063Z,28.53
2022-11-22T17:22:58.946Z,28.07
2022-11-22T17:25:33.778Z,28.73
2022-11-22T17:28:09.486Z,26.27
2022-11-22T17:30:44.098Z,29.40
2022-11-22T17:33:22.827Z,29.83
2022-11-22T17:36:08.211Z,29.03
2022-11-22T17:38:47.308Z,30.97
2022-11-22T17:41:22.016Z,31.93
2022-11-22T17:43:57.522Z,31.90
2022-11-22T17:46:35.820Z,34.20
2022-11-22T17:49:16.039Z,34.53
2022-11-22T17:51:52.520Z,36.53
2022-11-22T17:54:29.675Z,38.03
2022-11-22T17:57:13.138Z,39.57
2022-11-22T18:00:01.354Z,41.60
2022-11-22T18:02:39.457Z,42.43
2022-11-22T18:05:17.708Z,42.20
2022-11-22T18:07:55.024Z,42.83
2022-11-22T18:10:37.710Z,40.87
2022-11-22T18:13:21.164Z,42.03
2022-11-22T18:16:06.220Z,42.23
2022-11-22T18:18:56.845Z,43.47
2022-11-22T18:21:33.609Z,43.73
2022-11-22T18:24:09.972Z,43.33
2022-11-22T18:26:46.980Z,43.20
2022-11-22T18:32:20.470Z,42.00
2022-11-22T18:34:55.076Z,38.80
2022-11-22T18:37:30.926Z,41.97
2022-11-22T18:40:05.999Z,41.73
2022-11-22T18:42:42.572Z,41.90
2022-11-22T18:45:16.857Z,42.53
2022-11-22T18:47:51.194Z,44.17
2022-11-22T18:50:25.327Z,45.23
2022-11-22T18:53:01.619Z,43.17
2022-11-22T18:55:37.714Z,44.60
2022-11-22T18:58:14.396Z,43.80
2022-11-22T19:00:48.622Z,40.73
2022-11-22T19:03:23.154Z,42.57
2022-11-22T19:05:57.601Z,41.23
2022-11-22T19:08:32.697Z,42.30
2022-11-22T19:11:07.751Z,40.13
2022-11-22T19:13:45.436Z,40.90
2022-11-22T19:16:20.981Z,42.70
2022-11-22T19:18:55.974Z,42.10
2022-11-22T19:21:35.455Z,40.40
2022-11-22T19:24:10.946Z,36.13
2022-11-22T19:26:45.848Z,37.43
2022-11-22T19:29:22.879Z,37.17
2022-11-22T19:31:57.749Z,39.30
2022-11-22T19:34:34.306Z,39.70
2022-11-22T19:37:08.688Z,40.17
2022-11-22T19:39:42.944Z,39.67
2022-11-22T19:42:18.204Z,37.17
2022-11-22T19:44:54.635Z,37.33
2022-11-22T19:47:29.378Z,38.33
2022-11-22T19:50:03.784Z,39.10
2022-11-22T19:52:40.865Z,37.70
2022-11-22T19:55:15.524Z,38.73
2022-11-22T19:57:50.660Z,37.57
2022-11-22T20:00:27.143Z,35.97
2022-11-22T20:03:02.271Z,38.27
2022-11-22T20:05:36.910Z,37.07
2022-11-22T20:08:11.734Z,38.50
2022-11-22T20:10:46.363Z,37.77
2022-11-22T20:13:20.698Z,37.47
2022-11-22T20:15:57.163Z,37.30
2022-11-22T20:18:31.400Z,37.57
2022-11-22T20:21:09.529Z,36.07
2022-11-22T20:23:44.261Z,37.57
2022-11-22T20:26:21.093Z,38.47
2022-11-22T20:29:01.627Z,38.87
2022-11-22T20:31:40.583Z,38.67
2022-11-22T20:34:16.920Z,38.30
2022-11-22T20:36:51.947Z,40.27
2022-11-22T20:39:26.269Z,40.37
2022-11-22T20:42:31.975Z,39.93
2022-11-22T20:44:57.091Z,40.27
2022-11-22T20:47:34.755Z,39.20
2022-11-22T20:50:09.651Z,40.27
2022-11-22T20:52:43.953Z,39.97
2022-11-22T20:55:18.057Z,39.63
2022-11-22T20:57:54.540Z,38.33
2022-11-22T21:00:29.309Z,38.97
2022-11-22T21:03:06.280Z,39.97
2022-11-22T21:05:40.795Z,39.40
2022-11-22T21:12:00.179Z,40.17
2022-11-22T21:14:34.494Z,39.80
2022-11-22T21:17:37.261Z,40.30
2022-11-22T21:20:07.288Z,41.20
2022-11-22T21:22:42.772Z,40.73
2022-11-22T21:25:17.719Z,40.33
2022-11-22T21:27:52.721Z,38.87
2022-11-22T21:30:27.117Z,39.27
2022-11-22T21:33:01.426Z,40.57
2022-11-22T21:35:37.730Z,39.93
2022-11-22T21:38:12.440Z,42.17
2022-11-22T21:41:05.634Z,43.40
2022-11-22T21:43:50.748Z,43.83
2022-11-22T21:46:26.616Z,46.33
2022-11-22T21:49:01.546Z,49.37
2022-11-22T21:51:37.515Z,49.47
2022-11-22T21:54:12.526Z,49.53
2022-11-22T21:56:49.433Z,48.53
2022-11-22T21:59:24.649Z,46.27
2022-11-22T22:01:59.003Z,48.67
2022-11-22T22:04:34.581Z,49.33
2022-11-22T22:07:29.669Z,48.53
2022-11-22T22:10:04.740Z,49.73
2022-11-22T22:12:41.012Z,53.77
2022-11-22T22:15:16.879Z,54.27
2022-11-22T22:17:52.344Z,54.77
2022-11-22T22:20:28.189Z,55.43
2022-11-22T22:23:04.470Z,56.07
2022-11-22T22:25:38.832Z,55.67
2022-11-22T22:28:13.740Z,57.90
2022-11-22T22:30:48.619Z,57.07
2022-11-22T22:33:24.020Z,56.10
2022-11-22T22:35:58.893Z,56.77
2022-11-22T22:38:35.839Z,55.43
2022-11-22T22:41:10.961Z,54.30
2022-11-22T22:43:47.470Z,56.60
2022-11-22T22:46:26.155Z,54.77
2022-11-22T22:49:01.668Z,54.60
2022-11-22T22:51:36.587Z,55.50
2022-11-22T22:54:14.188Z,55.13
2022-11-22T22:56:48.932Z,54.00
2022-11-22T22:59:23.342Z,53.40
2022-11-22T23:01:57.282Z,53.90
2022-11-22T23:04:31.568Z,53.97
2022-11-22T23:07:05.587Z,52.33
2022-11-22T23:09:42.816Z,51.87
2022-11-22T23:12:17.418Z,50.67
2022-11-22T23:14:51.606Z,52.43
2022-11-22T23:17:27.647Z,50.93
2022-11-22T23:20:02.835Z,52.00
2022-11-22T23:22:37.823Z,50.80
2022-11-22T23:25:15.519Z,51.17
2022-11-22T23:27:50.679Z,50.80
2022-11-22T23:30:25.497Z,50.50
2022-11-22T23:33:00.115Z,51.73
2022-11-22T23:35:40.664Z,50.57
2022-11-22T23:38:15.465Z,52.23
2022-11-22T23:40:59.058Z,50.37
2022-11-22T23:43:34.527Z,50.33
2022-11-22T23:46:15.571Z,52.27
2022-11-22T23:48:51.928Z,52.40
2022-11-22T23:51:27.847Z,52.80
2022-11-22T23:54:03.891Z,54.47
2022-11-22T23:56:40.607Z,54.70
2022-11-22T23:59:20.662Z,52.73
